Latest Coastal Weather Observations for Low Head

IDV60701

Issued at 8:42 am EDT Wednesday 29 March 2017 (issued every 10 minutes, with the page automatically refreshed every 10 minutes)

About coastal observations | Map of coastal stations | Coastal observations for VIC | Marine services | Other Formats
Station Details ID: 091293 Name: LOW HEAD Lat: -41.05 Lon: 146.79 Height: 3.0 m
Data from the previous 72 hours. | See also: Recent months at Low Head
Date/Time
EDT
Temp
°C
Wind Pressure Rain since
9am
mm
Weather Cloud Vis
km
Sea
Height
m
Swell
Dir  Spd
kts
Gust
kts
hPa Trend Height
m
Period
s
Dir
29/08:30am 18.0 NNW 19 22 1006.9 - 0.0 - - - - - - -
29/08:00am 17.8 N 20 24 1006.5 - 0.0 - - - - - - -
29/07:30am 18.2 N 21 24 1006.7 - 0.0 - - - - - - -
29/07:00am 17.9 NNW 21 24 1006.7 - 0.0 - - - - - - -
29/06:30am 18.1 NNW 20 23 1006.8 - 0.0 - - - - - - -
29/06:00am 18.1 NNW 20 23 1007.1 - 0.0 - - - - - - -
29/05:30am 18.1 NNW 19 23 1007.1 - 0.0 - - - - - - -
29/05:00am 18.2 NNW 20 24 1007.3 - 0.0 - - - - - - -
29/04:30am 18.0 NNW 19 23 1007.4 - 0.0 - - - - - - -
29/04:00am 18.0 NNW 18 21 1007.4 - 0.0 - - - - - - -
29/03:30am 18.1 NW 18 21 1007.8 - 0.0 - - - - - - -
29/03:00am 18.0 NNW 17 20 1008.0 - 0.0 - - - - - - -
29/02:30am 17.8 NW 17 19 1008.2 - 0.0 - - - - - - -
29/02:00am 17.8 NW 19 23 1008.5 - 0.0 - - - - - - -
29/01:30am 17.7 WNW 16 19 1008.6 - 0.0 - - - - - - -
29/01:00am 17.8 WNW 16 20 1008.7 - 0.0 - - - - - - -
29/12:30am 17.9 NW 16 19 1009.2 - 0.0 - - - - - - -
29/12:00am 17.9 NW 17 20 1009.4 - 0.0 - - - - - - -
 
Date/Time
EDT
Temp
°C
Wind Pressure Rain since
9am
mm
Weather Cloud Vis
km
Sea
Height
m
Swell
Dir  Spd
kts
Gust
kts
hPa Trend Height
m
Period
s
Dir
28/11:30pm 18.2 NW 18 24 1009.5 - 0.0 - - - - - - -
28/11:00pm 17.9 WNW 17 20 1009.8 - 0.0 - - - - - - -
28/10:30pm 17.5 WNW 16 19 1010.0 - 0.0 - - - - - - -
28/10:00pm 17.1 WNW 16 18 1010.1 - 0.0 - - - - - - -
28/09:30pm 17.8 WNW 15 18 1010.0 - 0.0 - - - - - - -
28/09:00pm 17.8 W 21 24 1010.0 - 0.0 - - - - - - -
28/08:30pm 18.0 WNW 22 25 1009.8 - 0.0 - - - - - - -
28/08:00pm 18.2 WNW 21 24 1009.4 - 0.0 - - - - - - -
28/07:30pm 18.3 WNW 19 23 1009.1 - 0.0 - - - - - - -
28/07:00pm 18.4 WNW 20 24 1009.1 - 0.0 - - - - - - -
28/06:30pm 18.4 WNW 20 23 1009.0 - 0.0 - - - - - - -
28/06:00pm 18.4 WNW 20 23 1008.9 - 0.0 - - - - - - -
28/05:30pm 18.4 WNW 21 24 1009.0 - 0.0 - - - - - - -
28/05:00pm 18.8 WNW 22 27 1008.9 - 0.0 - - - - - - -
28/04:30pm 18.7 WNW 22 26 1008.9 - 0.0 - - - - - - -
28/04:00pm 18.9 WNW 21 25 1008.8 - 0.0 - - - - - - -
28/03:30pm 19.1 WNW 21 25 1009.0 - 0.0 - - - - - - -
28/03:00pm 19.0 WNW 19 23 1009.3 - 0.0 - - - - - - -
28/02:30pm 19.3 WNW 17 20 1009.3 - 0.0 - - - - - - -
28/02:00pm 18.0 WNW 21 31 1009.7 - 0.0 - - - - - - -
28/01:58pm 18.5 NW 20 31 1009.6 - 0.0 - - - - - - -
28/01:30pm 18.9 WNW 18 22 1010.0 - 0.0 - - - - - - -
28/01:00pm 18.1 WNW 19 23 1010.3 - 0.0 - - - - - - -
28/12:30pm 18.8 WNW 18 21 1010.6 - 0.0 - - - - - - -
28/12:00pm 17.9 WNW 16 19 1011.0 - 0.0 - - - - - - -
28/11:30am 17.5 W 18 22 1011.1 - 0.0 - - - - - - -
28/11:00am 18.0 WNW 19 22 1011.0 - 0.0 - - - - - - -
28/10:30am 17.5 W 20 24 1011.0 - 0.0 - - - - - - -
28/10:00am 16.9 W 19 23 1010.8 - 0.0 - - - - - - -
28/09:30am 17.0 W 19 22 1010.6 - 0.0 - - - - - - -
28/09:00am 16.2 W 21 27 1010.4 - 4.8 - - - - - - -
28/08:30am 17.1 W 21 27 1009.9 - 4.8 - - - - - - -
28/08:00am 17.0 W 20 25 1009.6 - 4.8 - - - - - - -
28/07:30am 17.0 W 19 23 1009.5 - 4.8 - - - - - - -
28/07:00am 17.1 WNW 21 25 1009.4 - 4.8 - - - - - - -
28/06:30am 16.8 WNW 21 25 1009.2 - 4.8 - - - - - - -
28/06:00am 17.1 W 21 25 1008.9 - 4.8 - - - - - - -
28/05:30am 16.7 W 20 24 1008.8 - 4.8 - - - - - - -
28/05:00am 16.8 W 19 23 1008.6 - 4.8 - - - - - - -
28/04:30am 16.8 WNW 22 25 1008.5 - 4.8 - - - - - - -
28/04:00am 16.9 WNW 21 26 1008.4 - 4.8 - - - - - - -
28/03:30am 16.8 WNW 19 23 1008.5 - 4.8 - - - - - - -
28/03:00am 16.9 W 20 24 1008.6 - 4.8 - - - - - - -
28/02:30am 16.9 W 21 25 1008.6 - 4.8 - - - - - - -
28/02:00am 16.7 W 22 26 1008.4 - 4.8 - - - - - - -
28/01:30am 16.9 W 21 25 1008.4 - 4.8 - - - - - - -
28/01:00am 16.9 W 21 24 1008.4 - 4.8 - - - - - - -
28/12:30am 17.2 W 21 27 1008.2 - 4.8 - - - - - - -
28/12:00am 17.4 W 23 29 1008.2 - 4.8 - - - - - - -
 
Date/Time
EDT
Temp
°C
Wind Pressure Rain since
9am
mm
Weather Cloud Vis
km
Sea
Height
m
Swell
Dir  Spd
kts
Gust
kts
hPa Trend Height
m
Period
s
Dir
27/11:30pm 17.4 W 24 29 1007.9 - 4.8 - - - - - - -
27/11:00pm 17.5 W 27 33 1007.9 - 4.8 - - - - - - -
27/10:30pm 17.4 W 27 31 1007.4 - 4.8 - - - - - - -
27/10:00pm 17.7 W 26 32 1007.2 - 4.8 - - - - - - -
27/09:30pm 17.8 W 27 33 1006.8 - 4.8 - - - - - - -
27/09:00pm 17.6 WNW 30 36 1006.4 - 4.8 - - - - - - -
27/08:30pm 17.9 WNW 30 37 1006.3 - 4.8 - - - - - - -
27/08:00pm 18.1 WNW 26 33 1005.7 - 4.8 - - - - - - -
27/07:30pm 17.6 WNW 23 27 1005.6 - 4.8 - - - - - - -
27/07:00pm 17.5 WNW 22 27 1005.5 - 4.8 - - - - - - -
27/06:30pm 17.2 WNW 23 27 1005.5 - 4.8 - - - - - - -
27/06:00pm 17.3 WNW 26 31 1005.4 - 4.8 - - - - - - -
27/05:30pm 16.9 W 28 33 1004.5 - 4.8 - - - - - - -
27/05:00pm 16.3 W 30 38 1003.8 - 4.8 - - - - - - -
27/04:30pm 16.1 W 28 34 1004.1 - 4.6 - - - - - - -
27/04:00pm 16.8 WNW 28 33 1003.6 - 3.4 - - - - - - -
27/03:30pm 18.1 W 30 36 1003.3 - 2.2 - - - - - - -
27/03:15pm 19.4 W 31 41 1003.2 - 2.2 - - - - - - -
27/03:00pm 19.5 W 31 37 1002.8 - 2.2 Recent precip. - - - - - -
27/02:39pm 19.5 W 37 48 1002.3 - 2.2 - - - - - - -
27/02:32pm 19.2 NW 25 45 1002.6 - 2.0 - - - - - - -
27/02:31pm 19.5 NW 22 44 1002.7 - 2.0 - - - - - - -
27/02:30pm 19.9 NW 20 30 1002.7 - 2.0 - - - - - - -
27/02:27pm 20.1 NNW 18 26 1002.3 - 2.0 - - - - - - -
27/02:00pm 20.1 N 13 15 1001.6 - 2.0 - - - - - - -
27/01:30pm 20.2 NE 8 10 1001.9 - 2.0 - - - - - - -
27/01:00pm 20.3 E 6 8 1001.4 - 2.0 - - - - - - -
27/12:30pm 19.9 ENE 18 22 1001.1 - 2.0 - - - - - - -
27/12:00pm 19.8 ENE 20 24 1001.3 - 1.6 Rain - - - - - -
27/11:52am 19.9 ENE 18 21 1002.7 - 1.0 - - - - - - -
27/11:30am 20.1 NE 9 12 1004.7 - 0.4 - - - - - - -
27/11:18am 20.4 NE 12 15 1004.9 - 0.0 - - - - - - -
27/11:00am 20.4 ENE 20 24 1002.9 - 0.0 - - - - - - -
27/10:30am 20.4 ENE 21 25 1003.0 - 0.0 - - - - - - -
27/10:00am 20.3 ENE 19 21 1003.6 - 0.0 - - - - - - -
27/09:30am 20.3 ENE 17 20 1004.3 - 0.0 - - - - - - -
27/09:00am 20.1 ENE 15 19 1005.0 - 0.0 - - - - - - -
27/08:30am 19.6 ENE 11 15 1005.9 - 0.0 - - - - - - -
27/08:00am 18.8 E 5 7 1006.6 - 0.0 - - - - - - -
27/07:30am 18.2 ESE 5 7 1006.6 - 0.0 - - - - - - -
27/07:00am 17.6 ESE 5 6 1006.7 - 0.0 - - - - - - -
27/06:30am 17.9 ESE 5 7 1006.9 - 0.0 - - - - - - -
27/06:00am 18.0 SE 6 8 1007.4 - 0.0 - - - - - - -
27/05:30am 18.2 SE 6 7 1007.5 - 0.0 - - - - - - -
27/05:00am 18.8 ESE 7 10 1008.0 - 0.0 - - - - - - -
27/04:30am 18.9 E 8 11 1008.4 - 0.0 - - - - - - -
27/04:00am 18.5 E 10 13 1008.4 - 0.0 - - - - - - -
27/03:30am 18.5 E 10 13 1009.2 - 0.0 - - - - - - -
27/03:00am 18.6 E 9 16 1010.2 - 0.0 - - - - - - -
27/02:30am 18.4 E 10 13 1010.8 - 0.0 - - - - - - -
27/02:00am 18.2 E 8 9 1011.3 - 0.0 - - - - - - -
27/01:30am 18.4 ENE 10 13 1011.9 - 0.0 - - - - - - -
27/01:00am 18.6 ENE 12 14 1012.3 - 0.0 - - - - - - -
27/12:30am 18.7 ENE 13 15 1012.8 - 0.0 - - - - - - -
27/12:00am 18.7 ENE 12 14 1013.1 - 0.0 - - - - - - -
 
Date/Time
EDT
Temp
°C
Wind Pressure Rain since
9am
mm
Weather Cloud Vis
km
Sea
Height
m
Swell
Dir  Spd
kts
Gust
kts
hPa Trend Height
m
Period
s
Dir
26/11:30pm 18.9 E 13 17 1013.3 - 0.0 - - - - - - -
26/11:00pm 19.2 ENE 13 16 1013.6 - 0.0 - - - - - - -
26/10:30pm 19.2 ENE 12 14 1013.9 - 0.0 - - - - - - -
26/10:00pm 19.4 ENE 16 18 1013.9 - 0.0 - - - - - - -
26/09:30pm 19.4 ENE 15 17 1014.0 - 0.0 - - - - - - -
26/09:00pm 19.5 NE 11 13 1014.0 - 0.0 - - - - - - -
26/08:30pm 19.5 NE 11 12 1013.9 - 0.0 - - - - - - -
26/08:00pm 19.5 NE 12 14 1013.8 - 0.0 - - - - - - -
26/07:30pm 19.3 NE 7 8 1013.7 - 0.0 - - - - - - -
26/07:00pm 19.3 NE 6 7 1013.4 - 0.0 - - - - - - -
26/06:30pm 19.6 NE 5 6 1013.3 - 0.0 - - - - - - -
26/06:00pm 19.7 N 5 6 1013.5 - 0.0 - - - - - - -
26/05:30pm 20.4 N 7 8 1013.5 - 0.0 - - - - - - -
26/05:00pm 20.2 N 7 9 1013.4 - 0.0 - - - - - - -
26/04:30pm 19.5 NNE 7 8 1013.4 - 0.0 - - - - - - -
26/04:00pm 20.2 NNE 7 8 1013.5 - 0.0 - - - - - - -
26/03:30pm 20.4 N 7 8 1013.7 - 0.0 - - - - - - -
26/03:00pm 20.2 N 9 10 1013.9 - 0.0 - - - - - - -
26/02:30pm 20.0 NNE 9 10 1014.1 - 0.0 - - - - - - -
26/02:00pm 19.8 N 10 11 1014.3 - 0.0 - - - - - - -
26/01:30pm 19.6 NNE 10 11 1014.7 - 0.0 - - - - - - -
26/01:00pm 19.0 NNE 9 10 1015.0 - 0.0 - - - - - - -
26/12:30pm 18.7 NNE 9 11 1015.2 - 0.0 - - - - - - -
26/12:00pm 18.9 N 7 8 1015.5 - 0.0 - - - - - - -
26/11:30am 19.6 S 8 10 1015.5 - 0.0 - - - - - - -
26/11:00am 18.1 S 10 11 1015.4 - 0.0 - - - - - - -
26/10:30am 17.6 S 11 12 1015.4 - 0.0 - - - - - - -
26/10:00am 16.8 S 11 13 1015.3 - 0.0 - - - - - - -
26/09:30am 16.0 SSE 8 11 1015.0 - 0.0 - - - - - - -
26/09:00am 15.2 SSE 10 15 1014.9 - 0.4 - - - - - - -

Other Formats:

Comma delimited format used in spreadsheet applications
http://www.bom.gov.au/fwo/IDV60701/IDV60701.95964.axf

JavaScript Object Notation format (JSON) in row-major order
http://www.bom.gov.au/fwo/IDV60701/IDV60701.95964.json